Time;durP1;ratioP1;P1;durP2;ratioP2;P2;SDS_P1;SDS_P2;PMS_P1;PMS_P2;Temp;Humidity;BMP_temperature;BMP_pressure;BME280_temperature;BME280_humidity;BME280_pressure;Samples;Min_cycle;Max_cycle;Signal;HPM_P1;HPM_P2
2023/07/08 00:00:11;;;;;;;5.63;5.13;;;16.80;90.40;;;;;;5014464;28;20448;-65
2023/07/08 00:02:37;;;;;;;5.77;5.27;;;16.80;90.60;;;;;;5014360;28;20528;-65
2023/07/08 00:05:05;;;;;;;6.10;5.50;;;16.70;90.90;;;;;;5008030;28;21027;-64
2023/07/08 00:07:32;;;;;;;6.53;5.93;;;16.70;91.00;;;;;;5013991;28;20444;-67
2023/07/08 00:09:58;;;;;;;6.33;5.73;;;16.70;91.20;;;;;;5014566;28;20457;-67
2023/07/08 00:12:25;;;;;;;5.97;5.47;;;16.70;91.20;;;;;;5014358;28;20453;-67
2023/07/08 00:14:53;;;;;;;5.93;5.43;;;16.70;91.30;;;;;;5010185;28;20456;-67
2023/07/08 00:17:20;;;;;;;5.93;5.43;;;16.60;91.30;;;;;;5013709;28;20492;-67
2023/07/08 00:19:48;;;;;;;6.57;5.87;;;16.60;91.60;;;;;;5014525;28;20455;-67
2023/07/08 00:22:15;;;;;;;6.27;5.67;;;16.60;91.70;;;;;;5014354;28;20487;-67
2023/07/08 00:24:43;;;;;;;5.90;5.40;;;16.60;91.70;;;;;;5014360;28;20456;-67
2023/07/08 00:27:13;;;;;;;6.77;6.23;;;16.60;91.90;;;;;;5013980;28;20484;-66
2023/07/08 00:29:39;;;;;;;7.07;5.93;;;16.50;92.10;;;;;;5014255;28;20453;-67
2023/07/08 00:32:13;;;;;;;5.20;4.70;;;16.50;92.10;;;;;;5014075;28;20483;-67
2023/07/08 00:34:41;;;;;;;6.33;5.83;;;16.50;92.20;;;;;;5013998;28;20623;-66
2023/07/08 00:37:11;;;;;;;5.93;5.43;;;16.40;92.30;;;;;;5013904;28;20457;-66
2023/07/08 00:39:38;;;;;;;6.63;5.77;;;16.40;92.50;;;;;;5014048;28;20447;-66
2023/07/08 00:42:15;;;;;;;5.57;5.17;;;16.40;92.70;;;;;;5013821;28;20468;-66
2023/07/08 00:44:44;;;;;;;6.53;5.93;;;16.40;92.70;;;;;;5013738;28;20456;-66
2023/07/08 00:47:15;;;;;;;5.23;4.77;;;16.30;92.80;;;;;;5013206;28;20575;-66
2023/07/08 00:49:46;;;;;;;5.83;5.27;;;16.30;93.10;;;;;;5014274;28;20460;-66
2023/07/08 00:52:22;;;;;;;5.73;5.23;;;16.30;93.20;;;;;;5008185;28;20484;-66
2023/07/08 00:54:51;;;;;;;5.10;4.67;;;16.20;93.30;;;;;;5014007;28;20512;-66
2023/07/08 00:57:19;;;;;;;5.97;5.53;;;16.20;93.50;;;;;;5013549;28;20456;-67
2023/07/08 00:59:51;;;;;;;6.17;5.57;;;16.20;93.60;;;;;;5013783;28;20838;-66
2023/07/08 01:02:22;;;;;;;6.50;5.90;;;16.10;93.50;;;;;;5013747;28;20482;-66
2023/07/08 01:04:53;;;;;;;5.27;4.77;;;16.10;93.80;;;;;;5013809;28;20536;-66
2023/07/08 01:07:22;;;;;;;6.27;5.67;;;16.10;93.70;;;;;;5012887;28;20485;-66
2023/07/08 01:09:52;;;;;;;7.27;6.40;;;16.10;93.70;;;;;;5012900;28;20461;-66
2023/07/08 01:12:22;;;;;;;6.50;5.50;;;16.10;93.80;;;;;;5013735;28;21044;-66
2023/07/08 01:14:53;;;;;;;6.13;5.60;;;16.00;94.00;;;;;;5013698;28;20848;-66
2023/07/08 01:17:22;;;;;;;7.33;5.57;;;16.00;94.00;;;;;;5013327;28;20854;-66
2023/07/08 01:19:50;;;;;;;6.17;5.67;;;16.00;94.10;;;;;;5013496;28;20550;-66
2023/07/08 01:22:20;;;;;;;7.63;6.00;;;15.90;94.20;;;;;;5013241;28;20563;-66
2023/07/08 01:24:47;;;;;;;5.50;5.10;;;15.90;94.60;;;;;;5013522;28;20883;-66
2023/07/08 01:27:17;;;;;;;7.37;6.77;;;15.90;94.60;;;;;;5013027;28;20483;-66
2023/07/08 01:29:46;;;;;;;6.10;5.60;;;15.90;95.30;;;;;;5013498;28;20467;-66
2023/07/08 01:32:17;;;;;;;5.33;4.83;;;15.80;94.80;;;;;;5012965;28;20465;-67
2023/07/08 01:34:59;;;;;;;8.20;6.20;;;15.80;94.80;;;;;;5012754;28;20460;-66
2023/07/08 01:37:34;;;;;;;5.53;4.47;;;15.80;94.80;;;;;;5012718;28;20452;-66
2023/07/08 01:40:24;;;;;;;5.17;4.77;;;15.80;95.00;;;;;;5012921;28;20456;-66
2023/07/08 01:42:51;;;;;;;6.30;5.80;;;15.70;95.10;;;;;;5012870;28;20461;-66
2023/07/08 01:45:21;;;;;;;6.60;6.00;;;15.70;95.20;;;;;;5012517;28;20462;-67
2023/07/08 01:47:52;;;;;;;5.93;5.37;;;15.70;95.30;;;;;;5012977;28;20487;-66
2023/07/08 01:50:21;;;;;;;5.63;4.87;;;15.70;95.30;;;;;;5012437;28;20472;-66
2023/07/08 01:52:51;;;;;;;5.30;4.90;;;15.70;95.50;;;;;;5012516;28;20446;-66
2023/07/08 01:55:22;;;;;;;5.90;5.40;;;15.70;95.50;;;;;;5012527;28;20539;-66
2023/07/08 01:57:49;;;;;;;5.60;5.10;;;15.70;95.70;;;;;;5012349;28;21013;-66
2023/07/08 02:00:16;;;;;;;5.83;5.43;;;15.70;95.70;;;;;;5012571;28;20454;-66
2023/07/08 02:02:43;;;;;;;5.60;5.10;;;15.60;95.90;;;;;;5012660;28;21005;-66
2023/07/08 02:05:09;;;;;;;6.03;5.47;;;15.60;96.00;;;;;;5012571;28;20552;-66
2023/07/08 02:07:36;;;;;;;6.23;5.77;;;15.50;95.90;;;;;;5012079;28;20853;-66
2023/07/08 02:10:05;;;;;;;6.73;6.10;;;15.50;95.90;;;;;;5011993;28;20535;-66
2023/07/08 02:12:32;;;;;;;6.70;6.20;;;15.50;96.00;;;;;;5012076;28;20954;-66
2023/07/08 02:15:01;;;;;;;5.47;5.07;;;15.50;96.10;;;;;;5012390;28;20448;-66
2023/07/08 02:17:28;;;;;;;5.83;5.33;;;15.50;96.10;;;;;;5011321;28;20452;-66
2023/07/08 02:19:55;;;;;;;5.87;5.47;;;15.50;96.10;;;;;;5012345;28;20547;-66
2023/07/08 02:22:22;;;;;;;5.17;4.80;;;15.50;96.20;;;;;;5012241;28;20554;-66
2023/07/08 02:24:49;;;;;;;6.53;5.63;;;15.50;96.30;;;;;;4999414;28;20466;-66
2023/07/08 02:27:17;;;;;;;6.10;5.57;;;15.40;96.30;;;;;;5009541;28;20450;-66
2023/07/08 02:29:44;;;;;;;6.27;5.67;;;15.40;96.40;;;;;;5010639;28;20556;-66
2023/07/08 02:32:11;;;;;;;5.23;4.83;;;15.40;96.30;;;;;;5005417;28;20482;-66
2023/07/08 02:34:38;;;;;;;5.77;5.37;;;15.40;96.30;;;;;;5011883;28;20455;-66
2023/07/08 02:37:05;;;;;;;5.87;5.37;;;15.40;96.40;;;;;;5011742;28;20463;-66
2023/07/08 02:39:32;;;;;;;5.73;5.13;;;15.40;96.50;;;;;;5012089;28;20500;-66
2023/07/08 02:41:59;;;;;;;6.07;5.57;;;15.30;96.70;;;;;;5011604;28;20482;-66
2023/07/08 02:44:27;;;;;;;6.00;5.57;;;15.30;96.80;;;;;;5011736;28;20457;-66
2023/07/08 02:46:54;;;;;;;6.33;5.80;;;15.20;97.20;;;;;;5010866;28;20459;-66
2023/07/08 02:49:21;;;;;;;5.90;5.40;;;15.20;97.10;;;;;;5006191;28;20524;-65
2023/07/08 02:51:48;;;;;;;6.13;5.63;;;15.20;97.10;;;;;;5011472;28;20859;-66
2023/07/08 02:54:14;;;;;;;5.77;5.20;;;15.10;97.00;;;;;;5011744;28;20456;-66
2023/07/08 02:56:41;;;;;;;5.70;5.20;;;15.10;97.10;;;;;;5011530;28;20459;-66
2023/07/08 02:59:08;;;;;;;7.67;6.50;;;15.10;97.10;;;;;;5011670;28;20453;-66
2023/07/08 03:01:41;;;;;;;5.57;5.07;;;15.10;97.20;;;;;;5011688;28;21022;-66
2023/07/08 03:04:12;;;;;;;6.60;6.00;;;15.00;97.20;;;;;;5012015;28;20549;-66
2023/07/08 03:06:39;;;;;;;5.00;4.60;;;15.00;97.30;;;;;;5011495;28;20453;-65
2023/07/08 03:09:06;;;;;;;5.73;5.23;;;15.00;97.40;;;;;;5011613;28;20492;-66
2023/07/08 03:11:33;;;;;;;6.60;6.10;;;15.00;97.50;;;;;;5011408;28;21017;-66
2023/07/08 03:14:00;;;;;;;6.10;5.60;;;14.90;97.50;;;;;;5011417;28;20460;-66
2023/07/08 03:16:27;;;;;;;5.30;4.80;;;14.90;97.50;;;;;;5008463;28;20461;-66
2023/07/08 03:18:55;;;;;;;6.20;5.60;;;14.90;97.60;;;;;;4994157;28;20967;-66
2023/07/08 03:21:22;;;;;;;5.83;5.33;;;14.80;97.60;;;;;;5010975;28;20479;-66
2023/07/08 03:23:49;;;;;;;6.70;5.10;;;14.80;97.60;;;;;;5011495;28;20451;-66
2023/07/08 03:26:19;;;;;;;5.40;5.00;;;14.80;97.90;;;;;;5010801;28;20543;-66
2023/07/08 03:28:46;;;;;;;5.87;5.47;;;14.80;97.60;;;;;;5010945;28;20488;-66
2023/07/08 03:31:13;;;;;;;6.97;6.43;;;14.80;97.60;;;;;;5014787;28;20496;-66
2023/07/08 03:33:39;;;;;;;6.03;5.53;;;14.70;97.70;;;;;;5015292;28;20975;-66
2023/07/08 03:36:12;;;;;;;7.03;6.40;;;14.70;97.70;;;;;;5015318;28;20457;-66
2023/07/08 03:38:39;;;;;;;5.90;5.40;;;14.70;97.80;;;;;;5015477;28;20448;-66
2023/07/08 03:41:06;;;;;;;6.00;5.40;;;14.70;97.90;;;;;;5014966;28;20471;-67
2023/07/08 03:43:33;;;;;;;5.97;5.47;;;14.60;98.30;;;;;;5015346;28;20537;-67
2023/07/08 03:46:00;;;;;;;6.20;5.50;;;14.60;98.10;;;;;;5014412;28;20456;-66
2023/07/08 03:48:27;;;;;;;5.80;5.30;;;14.60;98.20;;;;;;5015154;28;20488;-66
2023/07/08 03:50:54;;;;;;;6.17;5.70;;;14.60;98.20;;;;;;5014852;28;20483;-66
2023/07/08 03:53:22;;;;;;;6.80;6.20;;;14.50;98.30;;;;;;5014914;28;20450;-66
2023/07/08 03:55:49;;;;;;;6.47;5.87;;;14.50;98.40;;;;;;5013657;28;20838;-66
2023/07/08 03:58:16;;;;;;;6.10;5.50;;;14.50;98.60;;;;;;5014546;28;20448;-66
2023/07/08 04:00:42;;;;;;;7.17;5.20;;;14.50;98.80;;;;;;5014661;28;20997;-66
2023/07/08 04:03:12;;;;;;;6.57;5.97;;;14.40;98.90;;;;;;5014573;28;20941;-66
2023/07/08 04:05:39;;;;;;;6.60;6.03;;;14.40;98.70;;;;;;5014539;28;20446;-66
2023/07/08 04:08:06;;;;;;;6.13;5.50;;;14.40;98.80;;;;;;5014472;28;20499;-66
2023/07/08 04:10:34;;;;;;;6.10;5.70;;;14.40;99.00;;;;;;5014452;28;20472;-66
2023/07/08 04:13:01;;;;;;;6.77;6.20;;;14.40;99.20;;;;;;5014700;28;20483;-66
2023/07/08 04:15:28;;;;;;;5.47;4.97;;;14.40;99.20;;;;;;5014516;28;20461;-66
2023/07/08 04:17:57;;;;;;;6.23;5.63;;;14.40;99.20;;;;;;5014231;28;20456;-66
2023/07/08 04:20:24;;;;;;;6.73;6.03;;;14.50;99.30;;;;;;5014308;28;20568;-66
2023/07/08 04:22:51;;;;;;;6.33;5.73;;;14.50;99.50;;;;;;5014593;28;20535;-65
2023/07/08 04:25:19;;;;;;;6.27;5.77;;;14.50;99.70;;;;;;5014469;28;20545;-66
2023/07/08 04:27:47;;;;;;;6.57;6.07;;;14.40;99.80;;;;;;5014095;28;20539;-66
2023/07/08 04:30:21;;;;;;;5.97;5.53;;;14.40;99.70;;;;;;5014263;28;20447;-67
2023/07/08 04:32:48;;;;;;;6.23;5.73;;;14.50;99.90;;;;;;5014119;28;20541;-66
2023/07/08 04:35:15;;;;;;;6.90;5.90;;;14.50;99.90;;;;;;5014356;28;20457;-66
2023/07/08 04:37:42;;;;;;;6.50;5.97;;;14.50;99.80;;;;;;5013982;28;20447;-66
2023/07/08 04:40:18;;;;;;;7.87;7.17;;;14.60;99.90;;;;;;5013445;28;20822;-66
2023/07/08 04:42:47;;;;;;;6.30;5.57;;;14.60;99.90;;;;;;5013919;28;20448;-66
2023/07/08 04:45:16;;;;;;;7.10;5.70;;;14.60;99.90;;;;;;5013320;28;20460;-66
2023/07/08 04:47:43;;;;;;;6.53;6.00;;;14.60;99.90;;;;;;5013745;28;20452;-66
2023/07/08 04:50:11;;;;;;;5.70;5.30;;;14.70;99.90;;;;;;5013759;28;20494;-66
2023/07/08 04:52:38;;;;;;;6.53;5.93;;;14.70;99.90;;;;;;5013963;28;20453;-66
2023/07/08 04:55:05;;;;;;;6.50;6.07;;;14.80;99.90;;;;;;5013826;28;20509;-66
2023/07/08 04:57:32;;;;;;;7.37;6.60;;;14.90;99.90;;;;;;5013432;28;20818;-66
2023/07/08 05:00:00;;;;;;;6.63;6.03;;;14.90;99.90;;;;;;5013698;28;20518;-66
2023/07/08 05:02:27;;;;;;;7.13;6.53;;;15.00;99.90;;;;;;5013882;28;20547;-65
2023/07/08 05:04:54;;;;;;;6.00;5.50;;;15.10;99.90;;;;;;5013495;28;20538;-66
2023/07/08 05:07:21;;;;;;;6.63;5.90;;;15.10;99.90;;;;;;5013059;28;20545;-66
2023/07/08 05:09:47;;;;;;;7.30;6.73;;;15.20;99.90;;;;;;5013442;28;20594;-66
2023/07/08 05:12:14;;;;;;;6.23;5.63;;;15.30;99.90;;;;;;5013088;28;20519;-66
2023/07/08 05:14:42;;;;;;;6.73;6.13;;;15.40;99.90;;;;;;4994074;28;20526;-66
2023/07/08 05:17:11;;;;;;;5.97;5.40;;;15.50;99.90;;;;;;4993221;28;20969;-67
2023/07/08 05:19:38;;;;;;;5.77;5.40;;;15.60;99.90;;;;;;4993696;28;20454;-66
2023/07/08 05:22:05;;;;;;;5.70;5.30;;;15.70;99.90;;;;;;4992860;28;20982;-67
2023/07/08 05:24:32;;;;;;;6.63;6.00;;;15.80;99.90;;;;;;4993634;28;20457;-66
2023/07/08 05:26:59;;;;;;;6.80;6.20;;;15.90;99.90;;;;;;4993335;28;20456;-66
2023/07/08 05:29:26;;;;;;;7.20;6.50;;;16.00;99.90;;;;;;4993427;28;20876;-66
2023/07/08 05:31:53;;;;;;;7.70;7.00;;;16.20;99.90;;;;;;4993348;28;20564;-66
2023/07/08 05:34:21;;;;;;;5.40;5.00;;;16.30;99.90;;;;;;4993369;28;20454;-66
2023/07/08 05:36:48;;;;;;;6.20;5.70;;;16.50;99.90;;;;;;4993148;28;21000;-66
2023/07/08 05:39:15;;;;;;;5.97;5.57;;;16.60;99.90;;;;;;4993123;28;20486;-67
2023/07/08 05:41:42;;;;;;;6.07;5.57;;;16.80;99.90;;;;;;4992865;28;20481;-65
2023/07/08 05:44:08;;;;;;;7.17;6.60;;;16.90;99.90;;;;;;4992976;28;20456;-66
2023/07/08 05:46:35;;;;;;;6.50;5.90;;;17.20;99.90;;;;;;4993040;28;20489;-66
2023/07/08 05:49:02;;;;;;;5.93;5.43;;;17.30;99.90;;;;;;4992823;28;21024;-66
2023/07/08 05:51:30;;;;;;;6.33;5.90;;;17.50;99.80;;;;;;4992640;28;20486;-66
2023/07/08 05:53:57;;;;;;;6.63;6.13;;;17.70;99.70;;;;;;4992971;28;20969;-66
2023/07/08 05:56:24;;;;;;;7.30;6.70;;;17.90;99.50;;;;;;4992431;28;20541;-67
2023/07/08 05:58:51;;;;;;;6.67;6.13;;;18.10;99.00;;;;;;4993046;28;20538;-67
2023/07/08 06:03:43;;;;;;;5.80;5.40;;;18.50;98.40;;;;;;5056946;23;20595;-66
2023/07/08 06:06:10;;;;;;;6.50;5.90;;;18.70;97.90;;;;;;5046169;28;20205;-67
2023/07/08 06:08:38;;;;;;;5.57;5.17;;;18.90;97.70;;;;;;5050391;28;20444;-66
2023/07/08 06:11:04;;;;;;;6.50;5.90;;;19.00;96.60;;;;;;5032185;28;20452;-66
2023/07/08 06:13:31;;;;;;;6.57;5.97;;;19.20;96.70;;;;;;5012030;28;20835;-67
2023/07/08 06:15:58;;;;;;;6.47;5.97;;;19.50;96.70;;;;;;5011554;28;20457;-67
2023/07/08 06:18:25;;;;;;;6.20;5.70;;;19.60;96.00;;;;;;5011476;28;20458;-67
2023/07/08 06:20:53;;;;;;;5.97;5.47;;;19.80;95.60;;;;;;5012651;28;20458;-67
2023/07/08 06:23:20;;;;;;;5.33;4.93;;;20.00;95.40;;;;;;5011827;28;20494;-67
2023/07/08 06:25:48;;;;;;;6.77;6.27;;;20.10;95.60;;;;;;5012420;28;20886;-67
2023/07/08 06:28:15;;;;;;;6.37;5.93;;;20.10;95.60;;;;;;5020186;28;20455;-67
2023/07/08 06:30:42;;;;;;;6.17;5.57;;;20.10;95.60;;;;;;5030081;28;20485;-67
2023/07/08 06:33:09;;;;;;;6.27;5.70;;;20.10;95.40;;;;;;5031725;28;21227;-68
2023/07/08 06:35:35;;;;;;;6.93;6.33;;;20.10;95.30;;;;;;5031607;28;20536;-67
2023/07/08 06:38:03;;;;;;;5.83;5.30;;;20.10;95.10;;;;;;5031419;28;20454;-67
2023/07/08 06:40:30;;;;;;;5.60;5.10;;;20.20;95.30;;;;;;5031595;28;20939;-67
2023/07/08 06:42:58;;;;;;;6.10;5.70;;;20.30;94.80;;;;;;5031366;28;20510;-67
2023/07/08 06:45:25;;;;;;;8.23;6.00;;;20.40;94.90;;;;;;5031527;28;20457;-67
2023/07/08 06:47:52;;;;;;;5.97;5.47;;;20.60;94.90;;;;;;5021174;28;20463;-66
2023/07/08 06:50:18;;;;;;;5.63;5.23;;;20.80;94.50;;;;;;5003549;28;20579;-67
2023/07/08 06:52:45;;;;;;;6.60;6.10;;;21.00;94.00;;;;;;5014869;28;20985;-67
2023/07/08 06:55:13;;;;;;;8.17;6.17;;;21.20;92.60;;;;;;5015907;28;20450;-67
2023/07/08 06:57:39;;;;;;;6.60;6.00;;;21.50;92.10;;;;;;5026172;28;21196;-67
2023/07/08 07:00:09;;;;;;;7.37;6.67;;;21.80;91.40;;;;;;5016636;28;20931;-67
2023/07/08 07:02:36;;;;;;;6.37;5.77;;;22.10;90.60;;;;;;5026899;28;20473;-67
2023/07/08 07:05:03;;;;;;;6.80;6.10;;;22.40;88.20;;;;;;5011860;28;20534;-68
2023/07/08 07:07:30;;;;;;;7.90;5.53;;;22.60;88.90;;;;;;5022473;28;20445;-68
2023/07/08 07:09:57;;;;;;;6.33;5.90;;;22.90;88.50;;;;;;5017153;28;20490;-67
2023/07/08 07:12:25;;;;;;;5.90;5.40;;;23.10;87.10;;;;;;5024178;28;20847;-68
2023/07/08 07:14:52;;;;;;;7.47;6.87;;;23.40;85.30;;;;;;5015412;28;20459;-67
2023/07/08 07:17:21;;;;;;;6.40;5.90;;;23.60;84.10;;;;;;5022719;28;20501;-68
2023/07/08 07:19:48;;;;;;;6.23;5.73;;;23.90;83.60;;;;;;5011748;28;20956;-68
2023/07/08 07:22:15;;;;;;;5.53;5.03;;;24.10;80.60;;;;;;5022093;28;20479;-68
2023/07/08 07:24:42;;;;;;;6.80;5.00;;;24.40;79.90;;;;;;5010660;28;20975;-68
2023/07/08 07:27:09;;;;;;;6.17;5.77;;;24.70;81.60;;;;;;5018675;28;21141;-69
2023/07/08 07:29:43;;;;;;;6.40;5.83;;;24.90;80.50;;;;;;5023472;28;20617;-68
2023/07/08 07:32:11;;;;;;;7.47;5.23;;;25.20;80.90;;;;;;5016395;28;20472;-68
2023/07/08 07:34:39;;;;;;;6.93;6.37;;;25.50;78.70;;;;;;5017742;28;20462;-69
2023/07/08 07:37:07;;;;;;;6.50;6.00;;;25.80;76.90;;;;;;5018449;28;20451;-68
2023/07/08 07:39:34;;;;;;;6.17;5.77;;;26.20;76.00;;;;;;5017204;28;20462;-68
2023/07/08 07:42:00;;;;;;;6.87;5.60;;;26.40;72.10;;;;;;5015573;28;20471;-68
2023/07/08 07:44:27;;;;;;;5.50;5.10;;;26.70;71.30;;;;;;5011621;28;20547;-69
2023/07/08 07:46:54;;;;;;;6.43;5.83;;;27.00;71.30;;;;;;5007908;28;20936;-69
2023/07/08 07:49:22;;;;;;;6.90;6.20;;;27.20;67.50;;;;;;5015783;28;20505;-69
2023/07/08 07:51:50;;;;;;;5.63;5.20;;;27.40;67.90;;;;;;5019825;28;20479;-68
2023/07/08 07:54:17;;;;;;;6.53;6.03;;;27.50;67.70;;;;;;5016682;28;20553;-67
2023/07/08 07:56:44;;;;;;;6.70;6.20;;;27.60;66.90;;;;;;5019150;28;20452;-70
2023/07/08 07:59:11;;;;;;;7.57;6.80;;;27.80;64.40;;;;;;5021436;28;20449;-68
2023/07/08 08:01:38;;;;;;;6.80;6.30;;;28.10;65.30;;;;;;5019582;28;20854;-69
2023/07/08 08:04:05;;;;;;;5.43;4.90;;;28.30;65.20;;;;;;5023758;28;20535;-70
2023/07/08 08:06:32;;;;;;;6.80;6.30;;;28.70;65.00;;;;;;5020218;28;20453;-69
2023/07/08 08:09:00;;;;;;;6.47;5.87;;;28.90;65.40;;;;;;5030317;28;21189;-69
2023/07/08 08:11:27;;;;;;;7.23;6.53;;;29.10;63.10;;;;;;5030494;28;20446;-69
2023/07/08 08:13:54;;;;;;;6.43;5.93;;;29.30;61.60;;;;;;5008479;28;20449;-66
2023/07/08 08:16:21;;;;;;;6.53;5.97;;;29.60;59.50;;;;;;5021007;28;20451;-67
2023/07/08 08:18:48;;;;;;;7.30;6.73;;;29.80;60.00;;;;;;5011941;28;20962;-66
2023/07/08 08:21:15;;;;;;;5.90;5.50;;;29.80;58.60;;;;;;5024303;28;20446;-67
2023/07/08 08:23:42;;;;;;;5.80;5.30;;;30.00;58.50;;;;;;5012775;28;20470;-66
2023/07/08 08:26:10;;;;;;;5.80;5.20;;;30.10;59.00;;;;;;5020173;28;20541;-67
2023/07/08 08:28:37;;;;;;;6.97;6.43;;;30.00;54.60;;;;;;5019370;28;20451;-65
2023/07/08 08:31:04;;;;;;;6.00;5.40;;;29.90;54.70;;;;;;5023091;28;21011;-66
2023/07/08 08:33:31;;;;;;;7.83;7.13;;;29.70;54.60;;;;;;5019403;28;20477;-67
2023/07/08 08:35:57;;;;;;;5.90;5.40;;;29.40;57.00;;;;;;5025122;28;20529;-67
2023/07/08 08:38:24;;;;;;;7.07;6.57;;;29.40;58.20;;;;;;5018429;28;20980;-66
2023/07/08 08:40:51;;;;;;;5.53;5.13;;;29.50;57.50;;;;;;5020644;28;20445;-67
2023/07/08 08:43:24;;;;;;;6.23;5.73;;;29.70;57.70;;;;;;5018782;28;20485;-66
2023/07/08 08:45:59;;;;;;;6.97;6.47;;;29.90;58.50;;;;;;5024366;28;20446;-67
2023/07/08 08:48:27;;;;;;;6.73;6.23;;;30.10;57.40;;;;;;5007084;28;20494;-66
2023/07/08 08:50:59;;;;;;;7.00;6.30;;;30.20;56.40;;;;;;5021269;28;20483;-66
2023/07/08 08:53:28;;;;;;;6.10;5.60;;;30.40;54.80;;;;;;5017183;28;20480;-68
2023/07/08 08:56:00;;;;;;;7.50;6.80;;;30.50;54.50;;;;;;5022912;28;20454;-67
2023/07/08 08:58:37;;;;;;;5.87;5.27;;;30.70;54.30;;;;;;5011002;28;20555;-67
2023/07/08 09:01:09;;;;;;;7.17;6.57;;;30.80;54.90;;;;;;5012065;28;20452;-66
2023/07/08 09:03:45;;;;;;;6.70;6.07;;;30.90;51.60;;;;;;5012043;28;20491;-66
2023/07/08 09:06:18;;;;;;;8.03;7.03;;;31.10;52.00;;;;;;5005705;28;20455;-66
2023/07/08 09:08:45;;;;;;;6.27;5.77;;;31.20;52.90;;;;;;5017865;28;20457;-66
2023/07/08 09:11:34;;;;;;;6.37;5.87;;;31.30;49.30;;;;;;5013431;28;20490;-66
2023/07/08 09:14:02;;;;;;;6.67;6.17;;;31.40;50.10;;;;;;5008806;28;20468;-66
2023/07/08 09:16:39;;;;;;;5.93;5.43;;;31.20;49.70;;;;;;5023188;28;20446;-66
2023/07/08 09:19:11;;;;;;;6.50;6.03;;;31.20;50.70;;;;;;5013212;28;20465;-67
2023/07/08 09:21:45;;;;;;;9.70;6.33;;;31.10;50.80;;;;;;5017814;28;20449;-67
2023/07/08 09:24:18;;;;;;;5.83;5.43;;;31.10;51.20;;;;;;5015962;28;20827;-67
2023/07/08 09:26:47;;;;;;;6.70;6.10;;;31.00;51.70;;;;;;5016723;28;20462;-67
2023/07/08 09:29:15;;;;;;;6.67;5.97;;;30.80;49.90;;;;;;5023543;28;20455;-67
2023/07/08 09:31:42;;;;;;;6.87;6.37;;;30.70;51.20;;;;;;5012995;28;20521;-67
2023/07/08 09:34:12;;;;;;;6.50;6.00;;;30.70;51.20;;;;;;5020807;28;20461;-67
2023/07/08 09:36:42;;;;;;;6.43;4.60;;;30.80;52.90;;;;;;5014218;28;21015;-66
2023/07/08 09:39:12;;;;;;;6.60;6.10;;;30.90;51.20;;;;;;5020399;28;20446;-67
2023/07/08 09:41:41;;;;;;;6.70;6.20;;;31.10;48.70;;;;;;5014723;28;20488;-66
2023/07/08 09:44:19;;;;;;;7.60;6.90;;;31.10;48.80;;;;;;5020102;28;20547;-66
2023/07/08 09:46:46;;;;;;;6.60;6.10;;;31.00;48.90;;;;;;5016022;28;20466;-66
2023/07/08 09:49:27;;;;;;;5.60;5.20;;;31.00;47.70;;;;;;5021101;28;21071;-67
2023/07/08 09:51:55;;;;;;;5.60;4.93;;;31.10;48.20;;;;;;5018035;28;21084;-67
2023/07/08 09:54:24;;;;;;;7.23;6.53;;;31.20;47.90;;;;;;5013653;28;21035;-66
2023/07/08 09:56:58;;;;;;;6.87;6.17;;;31.00;45.80;;;;;;5022003;28;20976;-67
2023/07/08 09:59:32;;;;;;;6.23;5.73;;;31.10;46.70;;;;;;5011965;28;20449;-65
2023/07/08 10:02:02;;;;;;;6.00;5.60;;;31.00;46.40;;;;;;5008497;28;20487;-67
2023/07/08 10:04:29;;;;;;;6.43;5.80;;;31.00;47.30;;;;;;5017976;28;20788;-66
2023/07/08 10:06:56;;;;;;;5.90;5.33;;;31.10;45.40;;;;;;5025028;28;21020;-66
2023/07/08 10:09:25;;;;;;;4.93;4.53;;;31.20;44.50;;;;;;5012449;28;20447;-67
2023/07/08 10:11:59;;;;;;;5.50;5.03;;;31.30;45.30;;;;;;5021718;28;20495;-68
2023/07/08 10:14:33;;;;;;;5.77;5.17;;;31.40;46.10;;;;;;5018596;28;20520;-67
2023/07/08 10:17:00;;;;;;;5.30;4.93;;;31.60;42.10;;;;;;5012531;28;20459;-67
2023/07/08 10:19:27;;;;;;;5.80;5.40;;;31.60;42.90;;;;;;5025359;28;20827;-67
2023/07/08 10:22:06;;;;;;;6.13;5.53;;;31.80;45.20;;;;;;5019860;28;20475;-66
2023/07/08 10:24:51;;;;;;;5.83;5.10;;;31.80;41.70;;;;;;5019144;28;20523;-66
2023/07/08 10:27:27;;;;;;;6.50;6.00;;;31.80;42.80;;;;;;5013508;28;20983;-66
2023/07/08 10:30:11;;;;;;;5.63;5.23;;;31.90;43.20;;;;;;5019591;28;20459;-67
2023/07/08 10:32:52;;;;;;;5.43;5.03;;;31.80;42.10;;;;;;5017334;28;20509;-65
2023/07/08 10:35:22;;;;;;;6.27;5.77;;;31.80;39.60;;;;;;5017109;28;20452;-67
2023/07/08 10:38:04;;;;;;;5.80;5.40;;;31.80;40.80;;;;;;5009301;28;20465;-67
2023/07/08 10:40:48;;;;;;;5.93;5.43;;;31.80;42.50;;;;;;5019447;28;20483;-67
2023/07/08 10:43:43;;;;;;;6.37;5.70;;;31.80;42.10;;;;;;5014074;28;21035;-66
2023/07/08 10:46:32;;;;;;;7.47;5.60;;;31.80;41.50;;;;;;5015034;28;20936;-68
2023/07/08 10:49:21;;;;;;;5.83;5.30;;;31.80;40.60;;;;;;5015759;28;20830;-67
2023/07/08 10:51:56;;;;;;;6.30;4.83;;;31.80;41.90;;;;;;5019126;28;20504;-67
2023/07/08 10:54:45;;;;;;;5.97;5.57;;;31.90;42.30;;;;;;5012878;28;21098;-67
2023/07/08 10:57:28;;;;;;;6.23;5.60;;;32.00;41.50;;;;;;5011681;28;21037;-67
2023/07/08 11:00:08;;;;;;;5.40;4.93;;;32.00;42.00;;;;;;5011084;28;20797;-68
2023/07/08 11:03:05;;;;;;;5.90;5.40;;;32.00;41.50;;;;;;5015177;28;20488;-68
2023/07/08 11:05:39;;;;;;;5.37;4.97;;;32.20;41.30;;;;;;5007353;28;20458;-68
2023/07/08 11:08:12;;;;;;;6.20;5.63;;;32.30;40.70;;;;;;5010066;28;20459;-68
2023/07/08 11:10:48;;;;;;;5.93;5.33;;;32.20;39.40;;;;;;5019360;28;20485;-68
2023/07/08 11:13:19;;;;;;;6.20;5.70;;;32.30;40.20;;;;;;5008814;28;20511;-68
2023/07/08 11:15:51;;;;;;;6.13;5.63;;;32.40;41.30;;;;;;5018150;28;20529;-65
2023/07/08 11:18:27;;;;;;;5.93;5.53;;;32.50;40.90;;;;;;5012710;28;20544;-67
2023/07/08 11:21:00;;;;;;;7.40;5.40;;;32.50;41.20;;;;;;5015737;28;20490;-67
2023/07/08 11:23:32;;;;;;;6.10;5.60;;;32.50;39.70;;;;;;5008548;28;20478;-68
2023/07/08 11:26:11;;;;;;;6.47;5.80;;;32.60;40.90;;;;;;5013000;28;20536;-68
2023/07/08 11:28:38;;;;;;;6.50;5.83;;;32.60;39.80;;;;;;5017809;28;20453;-67
2023/07/08 11:31:06;;;;;;;5.50;5.00;;;32.70;39.10;;;;;;5020707;28;20721;-68
2023/07/08 11:33:35;;;;;;;5.63;5.20;;;32.70;39.70;;;;;;5012107;28;20562;-68
2023/07/08 11:36:04;;;;;;;6.00;5.53;;;32.80;39.30;;;;;;5020235;28;20900;-68
2023/07/08 11:38:34;;;;;;;6.30;5.80;;;32.90;39.40;;;;;;5017960;28;20488;-68
2023/07/08 11:41:03;;;;;;;5.33;4.93;;;32.90;38.90;;;;;;5022274;28;20487;-68
2023/07/08 11:43:40;;;;;;;5.70;5.33;;;33.00;39.30;;;;;;5015527;28;20495;-67
2023/07/08 11:46:07;;;;;;;5.93;5.43;;;33.10;39.00;;;;;;5017555;28;20456;-68
2023/07/08 11:48:43;;;;;;;6.23;5.63;;;33.20;38.20;;;;;;5009214;28;20458;-69
2023/07/08 11:51:10;;;;;;;7.30;6.70;;;33.20;37.40;;;;;;5023830;28;20492;-67
2023/07/08 11:53:39;;;;;;;6.83;6.13;;;33.20;38.00;;;;;;5026045;28;21030;-68
2023/07/08 11:56:21;;;;;;;5.13;4.73;;;33.20;38.20;;;;;;5026696;28;20940;-67
2023/07/08 11:59:05;;;;;;;6.37;5.30;;;33.30;38.70;;;;;;5027224;28;20456;-68
2023/07/08 12:01:39;;;;;;;5.30;5.00;;;33.30;37.20;;;;;;5023257;28;20894;-68
2023/07/08 12:04:29;;;;;;;6.80;6.20;;;33.40;37.00;;;;;;5025807;28;20453;-67
2023/07/08 12:07:09;;;;;;;6.03;5.30;;;33.50;37.40;;;;;;5017662;28;20873;-67
2023/07/08 12:09:38;;;;;;;5.60;5.13;;;33.60;36.80;;;;;;5022904;28;20457;-68
2023/07/08 12:12:15;;;;;;;6.67;6.03;;;33.70;37.40;;;;;;5029969;28;20495;-68
2023/07/08 12:14:41;;;;;;;6.00;5.60;;;33.80;38.00;;;;;;5023265;28;20460;-67
2023/07/08 12:17:12;;;;;;;7.07;6.40;;;33.90;37.80;;;;;;5019673;28;20450;-66
2023/07/08 12:19:44;;;;;;;6.47;5.90;;;34.00;36.50;;;;;;5020987;28;20461;-66
2023/07/08 12:22:12;;;;;;;6.80;6.20;;;34.20;37.00;;;;;;5021028;28;20571;-67
2023/07/08 12:24:40;;;;;;;7.00;6.43;;;34.30;36.50;;;;;;5022667;28;20460;-67
2023/07/08 12:27:09;;;;;;;5.23;4.83;;;34.30;36.20;;;;;;5024664;28;20836;-66
2023/07/08 12:29:36;;;;;;;6.37;5.77;;;34.50;36.70;;;;;;5018301;28;20456;-67
2023/07/08 12:32:04;;;;;;;6.03;5.60;;;34.60;36.90;;;;;;5025145;28;21136;-68
2023/07/08 12:34:32;;;;;;;6.60;6.00;;;34.80;35.20;;;;;;5014539;28;21062;-67
2023/07/08 12:37:00;;;;;;;6.70;6.10;;;35.00;34.80;;;;;;5011869;28;20440;-67
2023/07/08 12:39:27;;;;;;;6.63;6.17;;;35.00;34.30;;;;;;5017374;28;20449;-67
2023/07/08 12:41:54;;;;;;;6.93;6.33;;;35.10;35.90;;;;;;5013673;28;20495;-67
2023/07/08 12:44:23;;;;;;;7.30;6.53;;;35.30;36.90;;;;;;5017767;28;20890;-67
2023/07/08 12:46:53;;;;;;;6.53;5.93;;;35.20;32.70;;;;;;5023550;28;21033;-67
2023/07/08 12:49:23;;;;;;;7.57;6.87;;;35.10;34.70;;;;;;5018397;28;20823;-68
2023/07/08 12:51:50;;;;;;;5.80;5.30;;;34.90;34.30;;;;;;5027179;28;20812;-67
2023/07/08 12:54:18;;;;;;;6.90;6.40;;;34.70;35.90;;;;;;5024221;28;20460;-67
2023/07/08 12:56:47;;;;;;;7.53;6.00;;;34.60;34.90;;;;;;5022086;28;20449;-67
2023/07/08 12:59:20;;;;;;;6.20;5.70;;;34.80;36.70;;;;;;5013155;28;20449;-65
2023/07/08 13:01:48;;;;;;;6.80;6.20;;;35.20;36.60;;;;;;5021515;28;20493;-67